Decoded Metar for KMHT (MANCHESTER in NH, USA) (IATA:MHT) | Meteo·Mobile Aviation Weather
aviador You're here:

KMHT Decoded Metar

MANCHESTER in NH, USA
Report Time2019-02-17 15:53:00
UTC Time2019-02-17 16:53:11
Flight Rules vfr VFR
Wind330° at 05 kt
W.Decomp.*RWY 35: 5.0 kt HW 0.3 kt LCW
RWY 06: 1.4 kt HW 4.8 kt LCW
W.Rank330° ranks 1
Current wind is below 330° avg. (8.2)
Visibility9999 m
Phenomena:N/A
Clouds:Few 250 Hf
Expected CloudBase > 5,200 ft AGL from Temp-Dew spread
CeilingNone
Temp-3°C (ISA -17)
Dew Point-16°C (36% RH)
AAT-8.2°C
QNH1020 hPa
Density Alt-2,096 ft
Elevation266 ft
Report Wrong Elevation
Raw Report
KMHT 171553Z 33005KT 10SM FEW250 M03/M16 A3011 RMK AO2 SLP217
T10281156 $=

Extra information for KMHT:More info

Metar Taf Metar & Taf Last 4 Metars F.Rules Stats Wind Profile Meteogram Temp Stats Airport Information Weather charts Add Link Nearby VenuesMetar ALERT Operation Metar Decoded Social comments

AIRNAV info for KMHT